KHII/HII METAR and TAF weather

Enter ICAO airport designator
Station Type Date Time Source
KHII METAR 2020/01/27 10:55 UTC NOAA

KHII 271055Z AUTO 00000KT 10SM CLR 12/02 A3008 RMK AO2


Station Type Date Time Source
KHII Decoded METAR 2020/01/27 10:55 UTC NOAA

Station name not available
Jan 27, 2020 - 05:55 AM EST / 2020.01.27 1055 UTC
Wind: Calm:0
Visibility: 10 mile(s):0
Sky conditions: clear
Temperature: 53 F (12 C)
Dew Point: 35 F (2 C)
Relative Humidity: 50%
Pressure (altimeter): 30.08 in. Hg (1018 hPa)
ob: KHII 271055Z AUTO 00000KT 10SM CLR 12/02 A3008 RMK AO2
cycle: 11

Station Type Date Time Source
KHII TAF UTC NOAA

Error!

Example: see airport list